createdAt,value
2022-10-07T00:02:33.042Z,8.03
2022-10-07T00:05:36.252Z,7.57
2022-10-07T00:08:40.790Z,7.23
2022-10-07T00:11:45.375Z,7.93
2022-10-07T00:14:48.593Z,7.20
2022-10-07T00:17:51.817Z,7.90
2022-10-07T00:20:55.012Z,7.87
2022-10-07T00:23:58.624Z,7.57
2022-10-07T00:27:03.194Z,8.00
2022-10-07T00:30:07.037Z,7.40
2022-10-07T00:33:10.233Z,8.30
2022-10-07T00:36:15.892Z,7.50
2022-10-07T00:39:19.492Z,7.70
2022-10-07T00:42:24.023Z,8.23
2022-10-07T00:45:27.091Z,8.73
2022-10-07T00:48:33.158Z,7.80
2022-10-07T00:51:37.155Z,8.00
2022-10-07T00:54:41.168Z,8.33
2022-10-07T00:57:47.892Z,8.87
2022-10-07T01:00:51.755Z,7.17
2022-10-07T01:03:55.380Z,7.80
2022-10-07T01:06:58.504Z,6.77
2022-10-07T01:10:02.623Z,7.20
2022-10-07T01:13:15.276Z,7.50
2022-10-07T01:16:23.965Z,7.00
2022-10-07T01:19:46.107Z,7.50
2022-10-07T01:23:02.057Z,7.93
2022-10-07T01:26:27.428Z,7.70
2022-10-07T01:29:36.985Z,6.23
2022-10-07T01:32:44.489Z,6.80
2022-10-07T01:35:51.357Z,6.90
2022-10-07T01:39:02.459Z,6.53
2022-10-07T01:42:08.134Z,6.97
2022-10-07T01:45:16.109Z,6.90
2022-10-07T01:48:19.432Z,6.70
2022-10-07T01:51:26.540Z,7.37
2022-10-07T01:54:42.428Z,6.70
2022-10-07T01:57:55.776Z,6.60
2022-10-07T02:01:05.327Z,6.70
2022-10-07T02:04:22.599Z,6.20
2022-10-07T02:07:37.244Z,7.17
2022-10-07T02:10:55.253Z,6.33
2022-10-07T02:14:09.405Z,5.90
2022-10-07T02:17:16.852Z,7.23
2022-10-07T02:20:22.509Z,7.00
2022-10-07T02:23:27.763Z,6.43
2022-10-07T02:26:33.797Z,6.87
2022-10-07T02:29:42.007Z,6.60
2022-10-07T02:32:50.091Z,6.10
2022-10-07T02:35:55.634Z,5.77
2022-10-07T02:39:00.308Z,6.80
2022-10-07T02:42:10.727Z,6.00
2022-10-07T02:45:23.292Z,6.50
2022-10-07T02:48:34.386Z,6.20
2022-10-07T02:51:40.695Z,5.60
2022-10-07T02:54:48.222Z,5.93
2022-10-07T02:57:55.827Z,5.83
2022-10-07T03:01:02.397Z,5.50
2022-10-07T03:04:05.982Z,6.00
2022-10-07T03:07:09.308Z,5.50
2022-10-07T03:10:12.573Z,5.37
2022-10-07T03:13:15.771Z,4.97
2022-10-07T03:16:20.506Z,5.70
2022-10-07T03:19:23.945Z,5.10
2022-10-07T03:22:27.480Z,5.90
2022-10-07T03:25:30.545Z,6.30
2022-10-07T03:28:37.463Z,6.63
2022-10-07T03:31:42.426Z,5.70
2022-10-07T03:34:45.626Z,6.60
2022-10-07T03:37:48.705Z,6.33
2022-10-07T03:40:51.793Z,5.20
2022-10-07T03:43:57.511Z,6.13
2022-10-07T03:47:07.569Z,5.77
2022-10-07T03:50:13.053Z,6.00
2022-10-07T03:53:16.153Z,6.20
2022-10-07T03:56:19.223Z,5.60
2022-10-07T03:59:22.364Z,5.97
2022-10-07T04:02:26.843Z,5.47
2022-10-07T04:05:30.156Z,6.40
2022-10-07T04:08:34.268Z,6.23
2022-10-07T04:11:40.526Z,6.43
2022-10-07T04:14:43.673Z,5.77
2022-10-07T04:17:49.795Z,6.83
2022-10-07T04:20:53.109Z,7.40
2022-10-07T04:23:56.212Z,11.43
2022-10-07T04:26:59.302Z,9.00
2022-10-07T04:30:03.857Z,7.07
2022-10-07T04:33:08.856Z,8.20
2022-10-07T04:36:12.971Z,7.60
2022-10-07T04:39:16.143Z,8.07
2022-10-07T04:42:33.099Z,5.83
2022-10-07T04:45:37.606Z,6.00
2022-10-07T04:48:45.728Z,6.83
2022-10-07T04:51:49.013Z,7.47
2022-10-07T04:54:52.087Z,6.40
2022-10-07T04:57:55.175Z,7.00
2022-10-07T05:00:59.516Z,6.53
2022-10-07T05:04:04.174Z,6.80
2022-10-07T05:07:08.650Z,7.33
2022-10-07T05:10:12.274Z,6.80
2022-10-07T05:13:18.028Z,8.20
2022-10-07T05:16:21.174Z,6.73
2022-10-07T05:19:25.970Z,6.50
2022-10-07T05:22:29.080Z,7.40
2022-10-07T05:25:32.175Z,8.30
2022-10-07T05:28:36.114Z,8.10
2022-10-07T05:31:39.323Z,9.30
2022-10-07T05:34:45.015Z,9.10
2022-10-07T05:37:51.206Z,8.30
2022-10-07T05:40:59.929Z,7.73
2022-10-07T05:44:03.011Z,6.50
2022-10-07T05:47:07.059Z,6.87
2022-10-07T05:50:11.790Z,6.53
2022-10-07T05:53:16.503Z,6.00
2022-10-07T05:56:21.638Z,6.80
2022-10-07T05:59:24.763Z,7.20
2022-10-07T06:02:28.596Z,6.67
2022-10-07T06:05:33.385Z,8.87
2022-10-07T06:08:37.361Z,7.27
2022-10-07T06:11:57.771Z,8.50
2022-10-07T06:15:00.903Z,7.43
2022-10-07T06:18:05.185Z,7.17
2022-10-07T06:21:09.672Z,7.13
2022-10-07T06:24:13.236Z,7.77
2022-10-07T06:27:16.321Z,7.93
2022-10-07T06:30:19.424Z,8.23
2022-10-07T06:33:22.544Z,7.47
2022-10-07T06:36:27.111Z,8.07
2022-10-07T06:39:30.197Z,8.13
2022-10-07T06:42:33.704Z,7.67
2022-10-07T06:45:36.911Z,8.43
2022-10-07T06:48:42.539Z,7.90
2022-10-07T06:51:47.871Z,7.83
2022-10-07T06:54:50.978Z,7.10
2022-10-07T06:57:54.079Z,8.00
2022-10-07T07:00:58.048Z,8.23
2022-10-07T07:04:01.352Z,8.87
2022-10-07T07:07:05.838Z,7.80
2022-10-07T07:10:10.027Z,8.23
2022-10-07T07:13:14.022Z,8.33
2022-10-07T07:16:17.368Z,8.30
2022-10-07T07:19:20.487Z,8.00
2022-10-07T07:22:25.033Z,8.27
2022-10-07T07:25:28.240Z,7.97
2022-10-07T07:28:33.374Z,6.20
2022-10-07T07:31:37.714Z,7.73
2022-10-07T07:34:40.990Z,7.50
2022-10-07T07:37:46.980Z,5.60
2022-10-07T07:40:50.528Z,6.73
2022-10-07T07:43:55.372Z,6.63
2022-10-07T07:46:59.403Z,6.87
2022-10-07T07:50:03.466Z,7.77
2022-10-07T07:53:08.709Z,7.13
2022-10-07T07:56:12.612Z,6.60
2022-10-07T07:59:15.785Z,7.50
2022-10-07T08:02:19.383Z,7.20
2022-10-07T08:05:24.092Z,7.40
2022-10-07T08:08:28.932Z,7.40
2022-10-07T08:11:32.875Z,7.33
2022-10-07T08:14:37.095Z,7.47
2022-10-07T08:17:40.267Z,6.97
2022-10-07T08:20:43.364Z,7.07
2022-10-07T08:23:49.116Z,7.97
2022-10-07T08:26:53.518Z,7.85
2022-10-07T08:29:56.648Z,11.73
2022-10-07T08:33:01.561Z,8.52
2022-10-07T08:36:07.055Z,10.02
2022-10-07T08:39:11.830Z,8.45
2022-10-07T08:42:23.503Z,9.93
2022-10-07T08:45:31.663Z,8.27
2022-10-07T08:48:39.030Z,9.40
2022-10-07T08:51:45.640Z,7.88
2022-10-07T08:54:50.244Z,8.80
2022-10-07T08:58:21.269Z,8.73
2022-10-07T09:01:36.127Z,8.43
2022-10-07T09:04:54.870Z,9.40
2022-10-07T09:08:02.133Z,8.60
2022-10-07T09:11:16.628Z,7.70
2022-10-07T09:14:27.035Z,8.55
2022-10-07T09:17:36.388Z,9.18
2022-10-07T09:20:45.037Z,7.90
2022-10-07T09:23:49.449Z,8.27
2022-10-07T09:26:56.320Z,7.47
2022-10-07T09:29:59.454Z,8.43
2022-10-07T09:33:04.496Z,8.15
2022-10-07T09:36:09.506Z,7.55
2022-10-07T09:39:23.574Z,7.80
2022-10-07T09:42:35.268Z,7.15
2022-10-07T09:45:40.036Z,7.55
2022-10-07T09:48:53.372Z,7.15
2022-10-07T09:52:01.019Z,7.28
2022-10-07T09:55:32.518Z,6.20
2022-10-07T09:58:37.059Z,6.30
2022-10-07T10:01:41.852Z,6.97
2022-10-07T10:04:50.507Z,6.30
2022-10-07T10:08:00.264Z,5.68
2022-10-07T10:11:05.139Z,9.90
2022-10-07T10:14:29.391Z,5.28
2022-10-07T10:17:39.389Z,5.38
2022-10-07T10:20:44.721Z,4.30
2022-10-07T10:23:49.496Z,5.40
2022-10-07T10:27:01.632Z,4.88
2022-10-07T10:30:09.011Z,4.85
2022-10-07T10:33:20.449Z,4.28
2022-10-07T10:36:27.924Z,4.13
2022-10-07T10:39:42.160Z,3.75
2022-10-07T10:42:51.613Z,3.97
2022-10-07T10:46:28.642Z,3.42
2022-10-07T10:49:38.487Z,4.28
2022-10-07T10:52:53.136Z,4.18
2022-10-07T10:56:17.657Z,4.07
2022-10-07T10:59:42.589Z,3.67
2022-10-07T11:03:09.221Z,3.55
2022-10-07T11:06:17.091Z,3.97
2022-10-07T11:09:34.099Z,4.05
2022-10-07T11:12:41.082Z,3.88
2022-10-07T11:15:48.451Z,3.20
2022-10-07T11:18:57.502Z,3.83
2022-10-07T11:22:01.788Z,3.50
2022-10-07T11:25:16.673Z,3.40
2022-10-07T11:28:25.232Z,3.28
2022-10-07T11:31:33.870Z,2.92
2022-10-07T11:34:49.855Z,2.72
2022-10-07T11:38:01.683Z,3.33
2022-10-07T11:41:10.017Z,3.50
2022-10-07T11:44:21.587Z,2.97
2022-10-07T11:47:29.140Z,3.42
2022-10-07T11:50:39.251Z,3.60
2022-10-07T11:53:42.475Z,3.50
2022-10-07T11:56:49.296Z,3.42
2022-10-07T12:00:00.002Z,2.72
2022-10-07T12:03:14.035Z,3.13
2022-10-07T12:06:18.625Z,3.05
2022-10-07T12:09:55.488Z,3.25
2022-10-07T12:13:23.854Z,2.85
2022-10-07T12:16:54.214Z,2.90
2022-10-07T12:20:34.681Z,3.10
2022-10-07T12:23:46.626Z,3.28
2022-10-07T12:26:51.303Z,3.28
2022-10-07T12:30:00.331Z,3.13
2022-10-07T12:33:16.068Z,2.97
2022-10-07T12:36:29.352Z,3.45
2022-10-07T12:39:39.305Z,3.30
2022-10-07T12:42:48.555Z,3.22
2022-10-07T12:45:52.658Z,3.70
2022-10-07T12:49:02.946Z,3.70
2022-10-07T12:52:11.525Z,3.10
2022-10-07T12:55:19.431Z,2.83
2022-10-07T12:59:00.704Z,3.10
2022-10-07T13:02:34.928Z,3.80
2022-10-07T13:06:17.516Z,3.35
2022-10-07T13:09:53.858Z,3.47
2022-10-07T13:13:04.405Z,3.72
2022-10-07T13:16:14.294Z,3.30
2022-10-07T13:19:27.112Z,3.03
2022-10-07T13:22:31.477Z,2.97
2022-10-07T13:25:34.820Z,3.60
2022-10-07T13:28:48.177Z,3.53
2022-10-07T13:32:05.360Z,3.63
2022-10-07T13:35:30.630Z,3.88
2022-10-07T13:38:33.912Z,4.35
2022-10-07T13:41:38.952Z,3.67
2022-10-07T13:44:44.639Z,4.22
2022-10-07T13:47:48.255Z,4.60
2022-10-07T13:50:52.553Z,4.53
2022-10-07T13:53:58.243Z,4.30
2022-10-07T13:57:02.417Z,4.53
2022-10-07T14:00:08.294Z,4.40
2022-10-07T14:03:15.268Z,4.43
2022-10-07T14:06:48.390Z,4.53
2022-10-07T14:10:04.817Z,5.30
2022-10-07T14:13:09.743Z,4.53
2022-10-07T14:16:22.379Z,4.57
2022-10-07T14:19:26.725Z,4.67
2022-10-07T14:22:33.112Z,4.60
2022-10-07T14:25:53.170Z,5.37
2022-10-07T14:28:56.400Z,4.40
2022-10-07T14:32:35.517Z,5.30
2022-10-07T14:35:40.315Z,4.90
2022-10-07T14:38:47.296Z,5.37
2022-10-07T14:41:50.964Z,5.60
2022-10-07T14:44:56.036Z,5.37
2022-10-07T14:48:00.532Z,4.80
2022-10-07T14:51:03.759Z,5.53
2022-10-07T14:54:08.492Z,6.23
2022-10-07T14:57:11.604Z,5.33
2022-10-07T15:00:17.639Z,5.60
2022-10-07T15:03:22.125Z,5.90
2022-10-07T15:06:25.934Z,4.90
2022-10-07T15:09:29.027Z,6.07
2022-10-07T15:12:33.219Z,5.60
2022-10-07T15:15:39.805Z,6.10
2022-10-07T15:18:49.518Z,6.37
2022-10-07T15:21:56.338Z,5.30
2022-10-07T15:24:59.447Z,5.50
2022-10-07T15:28:02.949Z,5.83
2022-10-07T15:31:08.179Z,5.37
2022-10-07T15:34:14.045Z,5.67
2022-10-07T15:37:17.580Z,6.30
2022-10-07T15:40:21.099Z,6.70
2022-10-07T15:43:24.335Z,7.00
2022-10-07T15:46:28.147Z,6.47
2022-10-07T15:49:32.697Z,8.07
2022-10-07T15:52:35.806Z,7.23
2022-10-07T15:55:38.888Z,7.00
2022-10-07T15:58:42.118Z,6.70
2022-10-07T16:01:45.327Z,7.70
2022-10-07T16:04:49.969Z,7.47
2022-10-07T16:07:53.068Z,7.77
2022-10-07T16:10:56.452Z,7.40
2022-10-07T16:14:01.946Z,7.70
2022-10-07T16:17:05.129Z,8.50
2022-10-07T16:20:11.630Z,8.40
2022-10-07T16:23:14.918Z,8.33
2022-10-07T16:26:19.535Z,7.73
2022-10-07T16:29:41.619Z,8.23
2022-10-07T16:32:44.916Z,7.20
2022-10-07T16:35:49.590Z,8.00
2022-10-07T16:38:54.110Z,7.93
2022-10-07T16:41:58.586Z,8.73
2022-10-07T16:45:01.702Z,8.07
2022-10-07T16:48:04.973Z,8.73
2022-10-07T16:51:11.575Z,8.63
2022-10-07T16:54:16.812Z,8.37
2022-10-07T16:57:19.972Z,9.00
2022-10-07T17:00:23.282Z,7.90
2022-10-07T17:03:26.420Z,7.20
2022-10-07T17:06:32.309Z,7.93
2022-10-07T17:09:35.369Z,9.20
2022-10-07T17:12:38.518Z,8.70
2022-10-07T17:15:41.796Z,8.20
2022-10-07T17:18:45.036Z,9.63
2022-10-07T17:21:51.095Z,10.67
2022-10-07T17:24:54.261Z,10.07
2022-10-07T17:27:57.383Z,20.80
2022-10-07T17:31:05.590Z,20.87
2022-10-07T17:34:09.247Z,17.00
2022-10-07T17:37:14.015Z,18.70
2022-10-07T17:40:17.207Z,16.57
2022-10-07T17:43:20.305Z,12.80
2022-10-07T17:46:26.008Z,12.00
2022-10-07T17:49:29.182Z,10.83
2022-10-07T17:52:33.636Z,11.27
2022-10-07T17:55:37.724Z,9.90
2022-10-07T17:58:42.560Z,10.83
2022-10-07T18:01:46.160Z,9.40
2022-10-07T18:04:50.870Z,10.30
2022-10-07T18:07:55.937Z,9.40
2022-10-07T18:10:59.652Z,10.73
2022-10-07T18:14:20.040Z,10.30
2022-10-07T18:17:24.675Z,11.60
2022-10-07T18:20:28.845Z,11.40
2022-10-07T18:23:33.998Z,12.37
2022-10-07T18:26:37.445Z,11.03
2022-10-07T18:29:40.609Z,10.80
2022-10-07T18:32:44.397Z,11.30
2022-10-07T18:35:47.619Z,10.00
2022-10-07T18:38:52.479Z,10.33
2022-10-07T18:41:58.085Z,10.63
2022-10-07T18:45:01.558Z,10.60
2022-10-07T18:48:06.839Z,10.60
2022-10-07T18:51:13.742Z,10.93
2022-10-07T18:54:19.488Z,11.90
2022-10-07T18:57:24.033Z,10.73
2022-10-07T19:00:29.446Z,11.40
2022-10-07T19:03:35.398Z,10.60
2022-10-07T19:06:44.536Z,11.90
2022-10-07T19:09:50.606Z,11.60
2022-10-07T19:13:12.209Z,11.40
2022-10-07T19:16:17.996Z,12.50
2022-10-07T19:19:23.826Z,12.67
2022-10-07T19:22:26.970Z,13.30
2022-10-07T19:25:49.783Z,14.63
2022-10-07T19:28:53.855Z,11.90
2022-10-07T19:31:57.580Z,11.27
2022-10-07T19:35:01.134Z,12.37
2022-10-07T19:38:06.201Z,13.23
2022-10-07T19:41:12.363Z,12.53
2022-10-07T19:44:16.387Z,11.57
2022-10-07T19:47:21.143Z,11.50
2022-10-07T19:50:27.409Z,13.40
2022-10-07T19:53:34.236Z,12.80
2022-10-07T19:56:42.886Z,11.47
2022-10-07T19:59:46.073Z,10.70
2022-10-07T20:02:50.838Z,11.40
2022-10-07T20:05:55.069Z,9.70
2022-10-07T20:09:09.362Z,11.17
2022-10-07T20:12:15.109Z,11.40
2022-10-07T20:15:19.010Z,11.77
2022-10-07T20:18:22.165Z,14.73
2022-10-07T20:21:25.381Z,13.57
2022-10-07T20:24:28.544Z,12.67
2022-10-07T20:27:33.152Z,12.80
2022-10-07T20:30:36.285Z,12.90
2022-10-07T20:33:40.252Z,12.60
2022-10-07T20:36:43.895Z,11.50
2022-10-07T20:40:04.536Z,12.30
2022-10-07T20:43:09.042Z,12.20
2022-10-07T20:46:12.195Z,14.50
2022-10-07T20:49:22.496Z,12.60
2022-10-07T20:52:27.223Z,14.50
2022-10-07T20:55:34.097Z,12.27
2022-10-07T20:58:40.711Z,12.13
2022-10-07T21:01:44.393Z,12.00
2022-10-07T21:04:48.184Z,11.43
2022-10-07T21:07:54.629Z,10.40
2022-10-07T21:11:02.142Z,11.30
2022-10-07T21:14:06.682Z,13.60
2022-10-07T21:17:09.862Z,14.87
2022-10-07T21:20:12.961Z,13.30
2022-10-07T21:23:16.078Z,13.30
2022-10-07T21:26:19.786Z,12.30
2022-10-07T21:29:24.283Z,11.73
2022-10-07T21:32:28.205Z,11.73
2022-10-07T21:35:33.025Z,12.33
2022-10-07T21:38:36.347Z,12.80
2022-10-07T21:41:39.451Z,12.90
2022-10-07T21:44:47.329Z,12.27
2022-10-07T21:47:50.614Z,11.53
2022-10-07T21:50:57.451Z,11.87
2022-10-07T21:54:00.531Z,11.83
2022-10-07T21:57:04.601Z,11.37
2022-10-07T22:00:12.316Z,12.10
2022-10-07T22:03:15.937Z,12.70
2022-10-07T22:06:19.125Z,12.67
2022-10-07T22:09:21.533Z,12.70
2022-10-07T22:12:24.698Z,10.97
2022-10-07T22:15:29.256Z,11.20
2022-10-07T22:18:36.040Z,12.50
2022-10-07T22:21:40.400Z,11.73
2022-10-07T22:24:43.548Z,12.30
2022-10-07T22:27:48.840Z,11.50
2022-10-07T22:30:53.329Z,13.23
2022-10-07T22:33:58.202Z,11.17
2022-10-07T22:37:01.499Z,11.40
2022-10-07T22:40:05.206Z,11.80
2022-10-07T22:43:09.149Z,13.03
2022-10-07T22:46:15.399Z,12.30
2022-10-07T22:49:18.545Z,12.30
2022-10-07T22:52:22.250Z,12.30
2022-10-07T22:55:26.149Z,12.67
2022-10-07T22:58:29.522Z,13.27
2022-10-07T23:01:33.967Z,12.77
2022-10-07T23:04:37.048Z,11.30
2022-10-07T23:07:40.112Z,12.70
2022-10-07T23:10:43.238Z,13.03
2022-10-07T23:13:46.867Z,14.07
2022-10-07T23:16:51.316Z,14.83
2022-10-07T23:19:54.686Z,15.40
2022-10-07T23:22:58.369Z,14.90
2022-10-07T23:26:01.538Z,13.67
2022-10-07T23:29:05.036Z,14.17
2022-10-07T23:32:09.786Z,12.30
2022-10-07T23:35:12.887Z,11.83
2022-10-07T23:38:17.906Z,13.23
2022-10-07T23:41:22.637Z,13.50
2022-10-07T23:44:26.044Z,12.60
2022-10-07T23:47:30.500Z,13.17
2022-10-07T23:50:34.884Z,12.10
2022-10-07T23:53:38.003Z,12.87
2022-10-07T23:56:41.162Z,12.57
2022-10-07T23:59:44.415Z,12.77
